createdAt,value
2019-03-27T00:02:21.134Z,6.80
2019-03-27T00:04:49.807Z,6.33
2019-03-27T00:07:18.415Z,5.97
2019-03-27T00:09:49.715Z,6.47
2019-03-27T00:12:18.355Z,6.67
2019-03-27T00:14:46.951Z,6.50
2019-03-27T00:17:15.642Z,7.07
2019-03-27T00:19:44.206Z,6.37
2019-03-27T00:22:12.753Z,6.97
2019-03-27T00:24:41.337Z,7.23
2019-03-27T00:27:09.878Z,6.93
2019-03-27T00:29:38.504Z,6.80
2019-03-27T00:32:07.135Z,7.47
2019-03-27T00:34:35.672Z,6.70
2019-03-27T00:37:04.220Z,6.63
2019-03-27T00:39:32.749Z,6.53
2019-03-27T00:42:01.455Z,8.07
2019-03-27T00:44:31.061Z,7.17
2019-03-27T00:47:02.719Z,6.73
2019-03-27T00:49:33.018Z,6.83
2019-03-27T00:52:01.622Z,6.40
2019-03-27T00:54:30.150Z,6.40
2019-03-27T00:56:58.721Z,6.93
2019-03-27T00:59:27.251Z,6.37
2019-03-27T01:01:55.846Z,6.70
2019-03-27T01:04:24.451Z,6.63
2019-03-27T01:06:53.086Z,6.53
2019-03-27T01:09:21.826Z,7.20
2019-03-27T01:11:50.400Z,7.67
2019-03-27T01:14:19.031Z,6.93
2019-03-27T01:16:47.654Z,7.90
2019-03-27T01:19:16.178Z,6.33
2019-03-27T01:21:44.785Z,7.13
2019-03-27T01:24:13.468Z,8.23
2019-03-27T01:26:42.030Z,7.60
2019-03-27T01:29:10.493Z,7.90
2019-03-27T01:31:41.322Z,6.80
2019-03-27T01:34:09.860Z,7.67
2019-03-27T01:36:38.509Z,7.63
2019-03-27T01:39:07.700Z,6.87
2019-03-27T01:41:36.340Z,6.63
2019-03-27T01:44:04.970Z,7.17
2019-03-27T01:46:33.495Z,6.53
2019-03-27T01:49:01.991Z,7.50
2019-03-27T01:51:30.596Z,6.73
2019-03-27T01:53:59.171Z,7.47
2019-03-27T01:56:27.875Z,7.63
2019-03-27T01:58:56.512Z,6.80
2019-03-27T02:01:25.043Z,6.77
2019-03-27T02:03:53.584Z,6.40
2019-03-27T02:06:22.041Z,6.60
2019-03-27T02:08:50.511Z,6.83
2019-03-27T02:11:19.113Z,7.10
2019-03-27T02:13:49.179Z,6.87
2019-03-27T02:16:17.707Z,6.63
2019-03-27T02:18:46.333Z,6.30
2019-03-27T02:21:16.030Z,6.60
2019-03-27T02:23:44.563Z,7.20
2019-03-27T02:26:13.218Z,7.30
2019-03-27T02:28:41.896Z,6.13
2019-03-27T02:31:14.880Z,6.80
2019-03-27T02:33:40.679Z,6.23
2019-03-27T02:36:09.296Z,6.17
2019-03-27T02:38:37.902Z,6.77
2019-03-27T02:41:06.438Z,6.27
2019-03-27T02:43:34.972Z,6.37
2019-03-27T02:46:03.897Z,5.73
2019-03-27T02:48:32.459Z,5.53
2019-03-27T02:51:00.963Z,5.50
2019-03-27T02:53:31.523Z,5.33
2019-03-27T02:55:59.887Z,7.63
2019-03-27T02:58:28.422Z,5.93
2019-03-27T03:00:56.954Z,6.17
2019-03-27T03:03:25.566Z,6.20
2019-03-27T03:05:54.123Z,5.50
2019-03-27T03:08:22.794Z,5.67
2019-03-27T03:10:51.317Z,5.80
2019-03-27T03:13:19.849Z,6.73
2019-03-27T03:15:48.454Z,6.50
2019-03-27T03:18:16.990Z,5.70
2019-03-27T03:20:45.604Z,8.27
2019-03-27T03:23:14.066Z,11.07
2019-03-27T03:25:42.711Z,9.93
2019-03-27T03:28:11.248Z,9.70
2019-03-27T03:30:39.935Z,9.67
2019-03-27T03:33:08.539Z,9.43
2019-03-27T03:35:37.105Z,10.27
2019-03-27T03:38:05.709Z,13.67
2019-03-27T03:40:34.276Z,10.17
2019-03-27T03:43:02.907Z,8.23
2019-03-27T03:45:31.471Z,6.90
2019-03-27T03:48:00.044Z,6.60
2019-03-27T03:50:39.905Z,6.17
2019-03-27T03:53:16.229Z,6.03
2019-03-27T03:55:44.949Z,7.40
2019-03-27T03:58:15.048Z,5.90
2019-03-27T04:00:44.073Z,5.97
2019-03-27T04:03:12.706Z,6.13
2019-03-27T04:05:41.352Z,6.97
2019-03-27T04:08:09.972Z,6.43
2019-03-27T04:10:38.610Z,6.50
2019-03-27T04:13:07.404Z,5.97
2019-03-27T04:15:36.031Z,6.13
2019-03-27T04:18:04.604Z,6.10
2019-03-27T04:20:33.271Z,6.23
2019-03-27T04:23:01.875Z,6.37
2019-03-27T04:25:53.859Z,5.73
2019-03-27T04:28:00.946Z,6.20
2019-03-27T04:30:30.754Z,5.53
2019-03-27T04:33:01.385Z,5.30
2019-03-27T04:35:31.583Z,5.17
2019-03-27T04:38:00.034Z,6.23
2019-03-27T04:40:28.624Z,5.27
2019-03-27T04:42:59.284Z,5.13
2019-03-27T04:45:27.958Z,4.97
2019-03-27T04:47:56.596Z,5.53
2019-03-27T04:50:30.106Z,5.73
2019-03-27T04:52:55.503Z,6.87
2019-03-27T04:55:23.971Z,6.00
2019-03-27T04:57:52.502Z,5.60
2019-03-27T05:00:21.258Z,7.50
2019-03-27T05:02:49.719Z,7.73
2019-03-27T05:05:18.327Z,8.00
2019-03-27T05:07:46.860Z,7.47
2019-03-27T05:10:15.506Z,6.37
2019-03-27T05:12:44.041Z,5.97
2019-03-27T05:15:12.769Z,7.97
2019-03-27T05:17:46.147Z,6.90
2019-03-27T05:20:11.773Z,7.53
2019-03-27T05:22:40.976Z,6.70
2019-03-27T05:25:09.553Z,6.13
2019-03-27T05:27:38.033Z,5.67
2019-03-27T05:30:08.660Z,6.80
2019-03-27T05:32:37.303Z,7.93
2019-03-27T05:35:07.314Z,7.77
2019-03-27T05:37:35.924Z,6.17
2019-03-27T05:40:06.766Z,6.60
2019-03-27T05:42:35.318Z,6.53
2019-03-27T05:45:04.722Z,6.27
2019-03-27T05:47:33.404Z,6.43
2019-03-27T05:50:02.045Z,7.03
2019-03-27T05:52:30.565Z,6.47
2019-03-27T05:54:59.557Z,6.57
2019-03-27T05:57:28.168Z,7.83
2019-03-27T05:59:56.715Z,6.73
2019-03-27T06:02:25.414Z,7.27
2019-03-27T06:04:53.938Z,6.27
2019-03-27T06:07:24.510Z,5.10
2019-03-27T06:09:52.997Z,7.40
2019-03-27T06:12:21.633Z,7.73
2019-03-27T06:14:54.575Z,7.60
2019-03-27T06:17:23.183Z,6.70
2019-03-27T06:19:51.732Z,5.70
2019-03-27T06:22:20.447Z,6.20
2019-03-27T06:24:49.091Z,7.50
2019-03-27T06:27:17.641Z,7.87
2019-03-27T06:29:46.133Z,7.53
2019-03-27T06:32:14.776Z,5.93
2019-03-27T06:34:43.459Z,6.30
2019-03-27T06:37:12.078Z,7.60
2019-03-27T06:39:40.669Z,7.00
2019-03-27T06:42:09.223Z,7.47
2019-03-27T06:44:37.828Z,6.20
2019-03-27T06:47:06.437Z,7.03
2019-03-27T06:49:35.032Z,7.03
2019-03-27T06:52:03.651Z,7.47
2019-03-27T06:54:32.230Z,8.07
2019-03-27T06:57:01.365Z,6.57
2019-03-27T06:59:30.027Z,8.80
2019-03-27T07:01:58.697Z,8.27
2019-03-27T07:04:27.222Z,7.37
2019-03-27T07:06:55.845Z,7.53
2019-03-27T07:09:24.311Z,8.37
2019-03-27T07:11:52.990Z,7.20
2019-03-27T07:14:21.958Z,6.83
2019-03-27T07:16:50.488Z,6.70
2019-03-27T07:19:19.047Z,6.60
2019-03-27T07:21:47.645Z,7.17
2019-03-27T07:24:16.253Z,6.67
2019-03-27T07:26:44.791Z,7.53
2019-03-27T07:29:13.385Z,7.73
2019-03-27T07:31:41.994Z,7.73
2019-03-27T07:34:10.601Z,7.40
2019-03-27T07:36:39.139Z,6.47
2019-03-27T07:39:11.219Z,7.27
2019-03-27T07:41:38.034Z,8.47
2019-03-27T07:44:06.739Z,7.43
2019-03-27T07:46:35.365Z,6.73
2019-03-27T07:49:03.998Z,7.57
2019-03-27T07:51:32.592Z,5.80
2019-03-27T07:54:01.218Z,6.60
2019-03-27T07:56:29.753Z,7.63
2019-03-27T07:58:59.861Z,8.40
2019-03-27T08:01:28.776Z,9.30
2019-03-27T08:03:57.374Z,7.43
2019-03-27T08:06:28.268Z,7.83
2019-03-27T08:08:56.795Z,5.57
2019-03-27T08:11:25.543Z,5.13
2019-03-27T08:13:54.505Z,7.00
2019-03-27T08:16:23.042Z,6.97
2019-03-27T08:18:51.639Z,6.67
2019-03-27T08:21:20.159Z,7.00
2019-03-27T08:23:48.700Z,7.20
2019-03-27T08:26:17.233Z,7.17
2019-03-27T08:28:45.835Z,7.70
2019-03-27T08:31:19.547Z,12.37
2019-03-27T08:33:48.073Z,7.00
2019-03-27T08:36:16.686Z,7.33
2019-03-27T08:38:45.288Z,7.77
2019-03-27T08:41:14.157Z,6.80
2019-03-27T08:43:44.740Z,7.57
2019-03-27T08:46:12.873Z,5.22
2019-03-27T08:48:41.412Z,6.58
2019-03-27T08:51:10.075Z,6.60
2019-03-27T08:53:38.713Z,6.67
2019-03-27T08:56:07.320Z,6.25
2019-03-27T08:58:35.914Z,5.58
2019-03-27T09:01:05.535Z,8.18
2019-03-27T09:03:34.180Z,10.05
2019-03-27T09:06:02.781Z,7.10
2019-03-27T09:08:31.399Z,7.20
2019-03-27T09:11:00.010Z,6.83
2019-03-27T09:13:28.619Z,6.20
2019-03-27T09:15:57.149Z,9.05
2019-03-27T09:18:25.689Z,5.90
2019-03-27T09:20:54.287Z,6.37
2019-03-27T09:23:22.880Z,5.25
2019-03-27T09:25:51.414Z,6.28
2019-03-27T09:28:20.085Z,5.50
2019-03-27T09:30:51.063Z,6.65
2019-03-27T09:33:19.702Z,6.60
2019-03-27T09:35:48.307Z,6.55
2019-03-27T09:38:16.950Z,6.53
2019-03-27T09:40:45.534Z,5.78
2019-03-27T09:43:14.129Z,6.72
2019-03-27T09:45:42.728Z,6.25
2019-03-27T09:48:11.358Z,6.28
2019-03-27T09:50:41.326Z,6.85
2019-03-27T09:53:11.335Z,6.25
2019-03-27T09:55:39.933Z,5.60
2019-03-27T09:58:08.538Z,7.60
2019-03-27T10:00:49.115Z,6.20
2019-03-27T10:03:17.860Z,6.60
2019-03-27T10:05:46.385Z,4.92
2019-03-27T10:08:14.903Z,5.00
2019-03-27T10:10:43.517Z,4.80
2019-03-27T10:13:12.132Z,5.70
2019-03-27T10:15:40.764Z,5.12
2019-03-27T10:18:09.440Z,6.42
2019-03-27T10:20:38.048Z,5.30
2019-03-27T10:23:07.524Z,6.22
2019-03-27T10:25:36.047Z,4.72
2019-03-27T10:28:04.682Z,11.83
2019-03-27T10:30:33.282Z,6.10
2019-03-27T10:33:01.881Z,5.78
2019-03-27T10:35:30.356Z,86.37
2019-03-27T10:37:58.996Z,6.53
2019-03-27T10:40:27.535Z,7.37
2019-03-27T10:42:56.067Z,5.60
2019-03-27T10:45:24.594Z,5.70
2019-03-27T10:47:53.116Z,6.40
2019-03-27T10:50:21.745Z,5.45
2019-03-27T10:52:50.275Z,4.67
2019-03-27T10:55:18.841Z,6.33
2019-03-27T10:57:47.452Z,6.45
2019-03-27T11:00:16.785Z,5.10
2019-03-27T11:02:45.316Z,4.10
2019-03-27T11:05:14.021Z,4.60
2019-03-27T11:07:42.619Z,6.37
2019-03-27T11:10:12.422Z,8.48
2019-03-27T11:12:41.023Z,8.73
2019-03-27T11:15:10.418Z,7.00
2019-03-27T11:17:39.026Z,8.13
2019-03-27T11:20:08.448Z,7.45
2019-03-27T11:22:37.015Z,7.85
2019-03-27T11:25:12.368Z,7.05
2019-03-27T11:27:42.045Z,7.37
2019-03-27T11:30:11.499Z,6.78
2019-03-27T11:32:40.074Z,7.12
2019-03-27T11:35:09.019Z,7.12
2019-03-27T11:37:37.547Z,7.10
2019-03-27T11:40:06.655Z,7.92
2019-03-27T11:42:35.184Z,7.28
2019-03-27T11:45:05.748Z,7.78
2019-03-27T11:47:35.539Z,6.72
2019-03-27T11:50:07.956Z,8.25
2019-03-27T11:52:36.581Z,7.65
2019-03-27T11:55:06.161Z,6.55
2019-03-27T11:57:34.760Z,7.22
2019-03-27T12:00:04.469Z,8.43
2019-03-27T12:02:33.078Z,8.70
2019-03-27T12:05:03.882Z,9.13
2019-03-27T12:07:32.370Z,8.23
2019-03-27T12:10:00.892Z,8.08
2019-03-27T12:12:29.379Z,8.33
2019-03-27T12:14:57.910Z,8.38
2019-03-27T12:17:28.141Z,8.58
2019-03-27T12:19:56.667Z,7.03
2019-03-27T12:22:25.270Z,7.67
2019-03-27T12:24:53.777Z,9.03
2019-03-27T12:27:22.246Z,7.03
2019-03-27T12:29:54.370Z,9.55
2019-03-27T12:32:25.003Z,8.93
2019-03-27T12:34:54.646Z,8.58
2019-03-27T12:37:23.181Z,9.20
2019-03-27T12:39:51.763Z,9.13
2019-03-27T12:42:20.293Z,7.80
2019-03-27T12:44:48.847Z,7.55
2019-03-27T12:47:17.377Z,7.45
2019-03-27T12:49:45.942Z,6.20
2019-03-27T12:52:14.540Z,6.42
2019-03-27T12:54:44.828Z,8.45
2019-03-27T12:57:13.380Z,7.15
2019-03-27T12:59:41.981Z,6.67
2019-03-27T13:02:10.586Z,7.30
2019-03-27T13:04:39.238Z,7.08
2019-03-27T13:07:07.771Z,7.10
2019-03-27T13:09:36.228Z,6.92
2019-03-27T13:12:10.030Z,8.05
2019-03-27T13:14:38.670Z,6.97
2019-03-27T13:17:07.233Z,6.33
2019-03-27T13:19:35.828Z,6.85
2019-03-27T13:22:04.440Z,7.00
2019-03-27T13:24:33.001Z,8.18
2019-03-27T13:27:01.615Z,7.50
2019-03-27T13:29:31.805Z,7.90
2019-03-27T13:32:07.626Z,6.05
2019-03-27T13:34:37.617Z,5.90
2019-03-27T13:37:06.242Z,5.28
2019-03-27T13:39:34.704Z,6.23
2019-03-27T13:42:03.235Z,6.33
2019-03-27T13:44:37.325Z,6.90
2019-03-27T13:47:02.356Z,7.78
2019-03-27T13:49:30.975Z,8.00
2019-03-27T13:51:59.648Z,7.50
2019-03-27T13:54:28.288Z,7.20
2019-03-27T13:56:56.816Z,7.45
2019-03-27T13:59:25.380Z,7.55
2019-03-27T14:01:53.983Z,6.92
2019-03-27T14:04:22.792Z,8.30
2019-03-27T14:06:57.264Z,6.28
2019-03-27T14:09:25.825Z,6.50
2019-03-27T14:11:54.365Z,7.65
2019-03-27T14:14:22.889Z,7.47
2019-03-27T14:16:51.423Z,6.50
2019-03-27T14:19:20.036Z,6.65
2019-03-27T14:21:54.633Z,6.85
2019-03-27T14:24:18.982Z,6.45
2019-03-27T14:26:47.627Z,7.23
2019-03-27T14:29:16.239Z,8.20
2019-03-27T14:31:44.848Z,7.78
2019-03-27T14:34:13.454Z,8.15
2019-03-27T14:36:43.924Z,7.85
2019-03-27T14:39:12.513Z,8.93
2019-03-27T14:41:41.120Z,7.83
2019-03-27T14:44:09.667Z,7.65
2019-03-27T14:46:42.197Z,7.22
2019-03-27T14:49:10.660Z,7.95
2019-03-27T14:51:39.252Z,7.45
2019-03-27T14:54:07.934Z,8.38
2019-03-27T14:56:36.400Z,7.65
2019-03-27T14:59:05.010Z,7.67
2019-03-27T15:01:35.584Z,7.75
2019-03-27T15:04:12.120Z,7.78
2019-03-27T15:06:40.683Z,6.70
2019-03-27T15:09:10.356Z,8.43
2019-03-27T15:11:38.870Z,7.90
2019-03-27T15:14:07.479Z,8.33
2019-03-27T15:16:36.153Z,8.25
2019-03-27T15:19:05.031Z,8.48
2019-03-27T15:21:33.659Z,9.33
2019-03-27T15:24:02.277Z,9.30
2019-03-27T15:26:30.865Z,9.70
2019-03-27T15:28:59.329Z,8.65
2019-03-27T15:31:27.896Z,8.75
2019-03-27T15:33:56.588Z,7.00
2019-03-27T15:36:25.061Z,7.80
2019-03-27T15:38:53.646Z,7.37
2019-03-27T15:41:22.283Z,10.30
2019-03-27T15:43:50.847Z,9.63
2019-03-27T15:46:19.416Z,9.20
2019-03-27T15:48:47.877Z,8.85
2019-03-27T15:51:17.993Z,8.33
2019-03-27T15:53:47.457Z,9.47
2019-03-27T15:56:16.232Z,9.43
2019-03-27T15:58:44.813Z,8.70
2019-03-27T16:01:13.416Z,7.95
2019-03-27T16:03:41.957Z,9.17
2019-03-27T16:06:10.493Z,9.15
2019-03-27T16:08:39.059Z,11.07
2019-03-27T16:11:07.831Z,12.07
2019-03-27T16:13:36.337Z,12.10
2019-03-27T16:16:04.920Z,11.80
2019-03-27T16:18:33.400Z,13.23
2019-03-27T16:21:02.021Z,9.98
2019-03-27T16:23:32.515Z,8.43
2019-03-27T16:26:01.039Z,9.55
2019-03-27T16:28:29.576Z,12.83
2019-03-27T16:30:58.254Z,16.17
2019-03-27T16:33:26.903Z,11.75
2019-03-27T16:35:55.559Z,13.53
2019-03-27T16:38:24.167Z,13.35
2019-03-27T16:40:52.943Z,13.53
2019-03-27T16:43:21.547Z,13.35
2019-03-27T16:45:50.539Z,14.40
2019-03-27T16:48:20.637Z,13.33
2019-03-27T16:50:49.314Z,15.27
2019-03-27T16:53:17.921Z,22.77
2019-03-27T16:55:47.042Z,25.35
2019-03-27T16:58:15.648Z,26.50
2019-03-27T17:00:44.306Z,28.43
2019-03-27T17:03:13.713Z,26.37
2019-03-27T17:05:53.371Z,26.10
2019-03-27T17:08:12.668Z,20.13
2019-03-27T17:10:41.416Z,24.90
2019-03-27T17:13:09.966Z,24.80
2019-03-27T17:15:38.608Z,26.73
2019-03-27T17:18:07.289Z,22.97
2019-03-27T17:20:35.822Z,21.93
2019-03-27T17:23:17.517Z,21.37
2019-03-27T17:25:34.860Z,27.20
2019-03-27T17:28:03.513Z,27.57
2019-03-27T17:30:32.230Z,26.67
2019-03-27T17:33:00.752Z,29.23
2019-03-27T17:35:29.375Z,26.83
2019-03-27T17:37:57.837Z,28.63
2019-03-27T17:40:26.488Z,28.87
2019-03-27T17:42:55.127Z,31.27
2019-03-27T17:45:23.777Z,30.13
2019-03-27T17:47:52.417Z,34.50
2019-03-27T17:50:21.055Z,35.20
2019-03-27T17:52:49.590Z,34.07
2019-03-27T17:55:18.135Z,37.17
2019-03-27T17:57:46.751Z,35.77
2019-03-27T18:00:19.719Z,27.87
2019-03-27T18:02:48.360Z,28.33
2019-03-27T18:05:16.982Z,28.70
2019-03-27T18:07:45.595Z,27.57
2019-03-27T18:10:14.777Z,24.07
2019-03-27T18:12:43.394Z,25.27
2019-03-27T18:15:12.435Z,25.67
2019-03-27T18:17:41.048Z,26.23
2019-03-27T18:20:09.818Z,25.27
2019-03-27T18:22:38.358Z,23.60
2019-03-27T18:25:07.190Z,22.23
2019-03-27T18:27:35.799Z,20.27
2019-03-27T18:30:07.085Z,23.10
2019-03-27T18:32:35.736Z,25.00
2019-03-27T18:35:05.853Z,27.10
2019-03-27T18:37:34.479Z,21.90
2019-03-27T18:40:03.918Z,22.83
2019-03-27T18:42:32.469Z,26.20
2019-03-27T18:45:01.060Z,24.87
2019-03-27T18:47:29.720Z,23.73
2019-03-27T18:49:58.291Z,23.20
2019-03-27T18:52:26.910Z,22.60
2019-03-27T18:54:59.463Z,23.50
2019-03-27T18:57:28.167Z,21.93
2019-03-27T18:59:56.770Z,22.97
2019-03-27T19:02:27.449Z,26.50
2019-03-27T19:04:56.111Z,26.53
2019-03-27T19:07:24.755Z,22.90
2019-03-27T19:09:53.589Z,22.53
2019-03-27T19:12:22.148Z,22.60
2019-03-27T19:14:50.709Z,25.33
2019-03-27T19:17:19.606Z,25.93
2019-03-27T19:19:48.375Z,25.40
2019-03-27T19:22:16.923Z,26.33
2019-03-27T19:24:45.533Z,26.20
2019-03-27T19:27:14.069Z,25.53
2019-03-27T19:29:45.036Z,26.73
2019-03-27T19:32:13.206Z,27.67
2019-03-27T19:34:42.045Z,40.17
2019-03-27T19:37:11.064Z,44.13
2019-03-27T19:39:39.738Z,37.50
2019-03-27T19:42:08.440Z,29.07
2019-03-27T19:44:37.123Z,28.13
2019-03-27T19:47:05.922Z,32.17
2019-03-27T19:49:34.568Z,31.80
2019-03-27T19:52:03.232Z,30.80
2019-03-27T19:54:31.772Z,28.50
2019-03-27T19:57:00.460Z,26.50
2019-03-27T19:59:29.045Z,24.80
2019-03-27T20:01:57.594Z,25.07
2019-03-27T20:04:26.195Z,24.93
2019-03-27T20:06:54.825Z,24.03
2019-03-27T20:09:23.319Z,25.80
2019-03-27T20:11:52.011Z,28.63
2019-03-27T20:14:20.619Z,28.03
2019-03-27T20:16:49.224Z,26.03
2019-03-27T20:19:17.814Z,25.30
2019-03-27T20:21:46.378Z,25.30
2019-03-27T20:24:15.221Z,27.00
2019-03-27T20:26:43.907Z,25.90
2019-03-27T20:29:12.479Z,23.73
2019-03-27T20:31:41.092Z,26.23
2019-03-27T20:34:09.723Z,23.70
2019-03-27T20:36:38.749Z,23.67
2019-03-27T20:39:09.004Z,22.50
2019-03-27T20:41:37.558Z,23.37
2019-03-27T20:44:06.176Z,22.53
2019-03-27T20:46:34.831Z,21.33
2019-03-27T20:49:03.431Z,22.77
2019-03-27T20:51:32.493Z,22.70
2019-03-27T20:54:01.513Z,21.43
2019-03-27T20:56:30.438Z,23.83
2019-03-27T20:59:01.317Z,25.73
2019-03-27T21:01:35.573Z,29.27
2019-03-27T21:03:59.691Z,29.70
2019-03-27T21:06:28.355Z,38.30
2019-03-27T21:08:57.123Z,37.10
2019-03-27T21:11:25.978Z,40.53
2019-03-27T21:13:54.548Z,44.23
2019-03-27T21:16:23.204Z,54.37
2019-03-27T21:18:51.858Z,55.97
2019-03-27T21:21:20.452Z,65.10
2019-03-27T21:23:49.093Z,52.50
2019-03-27T21:26:17.726Z,46.73
2019-03-27T21:28:46.309Z,48.10
2019-03-27T21:31:14.921Z,47.87
2019-03-27T21:33:43.501Z,48.47
2019-03-27T21:36:12.054Z,48.73
2019-03-27T21:38:40.679Z,47.93
2019-03-27T21:41:09.296Z,42.57
2019-03-27T21:43:37.881Z,41.23
2019-03-27T21:46:06.643Z,41.90
2019-03-27T21:48:35.251Z,42.77
2019-03-27T21:51:04.026Z,39.20
2019-03-27T21:53:34.782Z,36.97
2019-03-27T21:56:03.477Z,34.47
2019-03-27T21:58:32.061Z,33.10
2019-03-27T22:01:00.862Z,32.40
2019-03-27T22:03:29.509Z,32.27
2019-03-27T22:05:58.146Z,29.97
2019-03-27T22:08:26.793Z,30.37
2019-03-27T22:10:55.417Z,30.23
2019-03-27T22:13:24.022Z,29.07
2019-03-27T22:15:52.800Z,29.80
2019-03-27T22:18:21.522Z,31.80
2019-03-27T22:20:50.217Z,29.17
2019-03-27T22:23:18.808Z,32.63
2019-03-27T22:25:47.422Z,32.73
2019-03-27T22:28:16.221Z,33.80
2019-03-27T22:30:44.800Z,32.00
2019-03-27T22:33:13.422Z,32.77
2019-03-27T22:35:42.032Z,30.53
2019-03-27T22:38:10.578Z,30.23
2019-03-27T22:40:39.612Z,27.57
2019-03-27T22:43:08.252Z,28.03
2019-03-27T22:45:36.907Z,29.03
2019-03-27T22:48:05.518Z,30.10
2019-03-27T22:50:34.204Z,30.83
2019-03-27T22:53:03.165Z,29.50
2019-03-27T22:55:31.780Z,28.93
2019-03-27T22:58:00.476Z,27.80
2019-03-27T23:00:31.141Z,32.50
2019-03-27T23:03:00.565Z,31.43
2019-03-27T23:05:30.274Z,30.97
2019-03-27T23:08:16.453Z,31.10
2019-03-27T23:10:45.081Z,31.70
2019-03-27T23:13:13.768Z,29.70
2019-03-27T23:15:43.053Z,25.63
2019-03-27T23:18:11.697Z,25.97
2019-03-27T23:20:40.307Z,27.40
2019-03-27T23:23:08.950Z,24.57
2019-03-27T23:25:38.258Z,22.83
2019-03-27T23:28:06.903Z,22.53
2019-03-27T23:30:40.396Z,23.67
2019-03-27T23:33:09.052Z,24.10
2019-03-27T23:35:37.700Z,23.50
2019-03-27T23:38:06.430Z,22.53
2019-03-27T23:40:35.156Z,23.07
2019-03-27T23:43:03.765Z,23.27
2019-03-27T23:45:32.448Z,22.93
2019-03-27T23:48:01.128Z,21.67
2019-03-27T23:50:29.604Z,23.13
2019-03-27T23:52:58.306Z,20.73
2019-03-27T23:55:29.134Z,22.37
2019-03-27T23:57:57.749Z,22.43
